Time;durP1;ratioP1;P1;durP2;ratioP2;P2;SDS_P1;SDS_P2;PMS_P1;PMS_P2;Temp;Humidity;BMP_temperature;BMP_pressure;BME280_temperature;BME280_humidity;BME280_pressure;Samples;Min_cycle;Max_cycle;Signal;HPM_P1;HPM_P2
2022/11/21 00:01:53;;;;;;;;;;;;;;;;;;5024247;28;19921;-74
2022/11/21 00:04:19;;;;;;;;;;;;;;;;;;5023119;28;19921;-73
2022/11/21 00:06:45;;;;;;;;;;;;;;;;;;5034231;28;19921;-74
2022/11/21 00:09:11;;;;;;;;;;;;;;;;;;5016376;28;19921;-74
2022/11/21 00:11:37;;;;;;;;;;;;;;;;;;5016317;28;19928;-73
2022/11/21 00:14:03;;;;;;;;;;;;;;;;;;5015473;28;19951;-73
2022/11/21 00:16:29;;;;;;;;;;;;;;;;;;4999682;28;19940;-74
2022/11/21 00:18:55;;;;;;;;;;;;;;;;;;5034227;28;19921;-74
2022/11/21 00:21:21;;;;;;;;;;;;;;;;;;5035661;28;19925;-74
2022/11/21 00:23:47;;;;;;;;;;;;;;;;;;5053526;28;20344;-72
2022/11/21 00:26:12;;;;;;;;;;;;;;;;;;5053383;28;20003;-74
2022/11/21 00:28:38;;;;;;;;;;;;;;;;;;5035926;28;20382;-74
2022/11/21 00:31:04;;;;;;;;;;;;;;;;;;5019203;28;19925;-74
2022/11/21 00:33:30;;;;;;;;;;;;;;;;;;5052052;28;20023;-73
2022/11/21 00:35:56;;;;;;;;;;;;;;;;;;5080301;22;19924;-72
2022/11/21 00:38:25;;;;;;;;;;;;;;;;;;5072232;28;19921;-73
2022/11/21 00:40:51;;;;;;;;;;;;;;;;;;5073454;28;19920;-73
2022/11/21 00:43:17;;;;;;;;;;;;;;;;;;5073778;28;20041;-73
2022/11/21 00:45:43;;;;;;;;;;;;;;;;;;5074292;28;20278;-72
2022/11/21 00:48:09;;;;;;;;;;;;;;;;;;5093834;28;19927;-72
2022/11/21 00:50:34;;;;;;;;;;;;;;;;;;5092262;28;19920;-71
2022/11/21 00:53:00;;;;;;;;;;;;;;;;;;5093391;28;20408;-71
2022/11/21 00:55:26;;;;;;;;;;;;;;;;;;5090907;28;19927;-70
2022/11/21 00:57:52;;;;;;;;;;;;;;;;;;5090282;28;19920;-71
2022/11/21 01:00:18;;;;;;;;;;;;;;;;;;5091969;28;19955;-71
2022/11/21 01:02:44;;;;;;;;;;;;;;;;;;5074331;28;19927;-71
2022/11/21 01:05:10;;;;;;;;;;;;;;;;;;5070642;28;19920;-71
2022/11/21 01:07:36;;;;;;;;;;;;;;;;;;5071015;28;19978;-71
2022/11/21 01:10:02;;;;;;;;;;;;;;;;;;5071570;28;20007;-71
2022/11/21 01:12:27;;;;;;;;;;;;;;;;;;5072628;28;20293;-73
2022/11/21 01:14:53;;;;;;;;;;;;;;;;;;5075192;28;20002;-73
2022/11/21 01:17:19;;;;;;;;;;;;;;;;;;5091333;28;19973;-73
2022/11/21 01:19:45;;;;;;;;;;;;;;;;;;5074772;28;20351;-73
2022/11/21 01:22:11;;;;;;;;;;;;;;;;;;5091800;28;19920;-74
2022/11/21 01:24:37;;;;;;;;;;;;;;;;;;5090939;28;20056;-71
2022/11/21 01:27:03;;;;;;;;;;;;;;;;;;5091524;28;19928;-71
2022/11/21 01:29:29;;;;;;;;;;;;;;;;;;5092991;28;19927;-71
2022/11/21 01:31:55;;;;;;;;;;;;;;;;;;5080650;28;19927;-71
2022/11/21 01:34:21;;;;;;;;;;;;;;;;;;5071853;28;19927;-71
2022/11/21 01:36:46;;;;;;;;;;;;;;;;;;5071208;28;20435;-72
2022/11/21 01:39:12;;;;;;;;;;;;;;;;;;5072495;28;19920;-72
2022/11/21 01:41:38;;;;;;;;;;;;;;;;;;5071343;28;20305;-72
2022/11/21 01:44:04;;;;;;;;;;;;;;;;;;5070734;28;20274;-71
2022/11/21 01:46:30;;;;;;;;;;;;;;;;;;5071381;28;19920;-72
2022/11/21 01:48:56;;;;;;;;;;;;;;;;;;5090852;28;19920;-72
2022/11/21 01:51:22;;;;;;;;;;;;;;;;;;5091282;28;19920;-72
2022/11/21 01:53:48;;;;;;;;;;;;;;;;;;5092026;28;19928;-72
2022/11/21 01:56:14;;;;;;;;;;;;;;;;;;5079489;28;20467;-72
2022/11/21 01:58:40;;;;;;;;;;;;;;;;;;5071114;28;19920;-72
2022/11/21 02:01:05;;;;;;;;;;;;;;;;;;5071228;28;19960;-71
2022/11/21 02:03:31;;;;;;;;;;;;;;;;;;5073719;28;20018;-72
2022/11/21 02:05:57;;;;;;;;;;;;;;;;;;5077741;28;19921;-72
2022/11/21 02:08:23;;;;;;;;;;;;;;;;;;5081410;28;19924;-72
2022/11/21 02:10:49;;;;;;;;;;;;;;;;;;5078432;28;19928;-72
2022/11/21 02:13:15;;;;;;;;;;;;;;;;;;5072930;28;19978;-72
2022/11/21 02:15:41;;;;;;;;;;;;;;;;;;5073180;28;20540;-72
2022/11/21 02:18:07;;;;;;;;;;;;;;;;;;5071750;28;19920;-72
2022/11/21 02:20:33;;;;;;;;;;;;;;;;;;5076641;28;19924;-72
2022/11/21 02:22:58;;;;;;;;;;;;;;;;;;5075116;28;19920;-72
2022/11/21 02:25:25;;;;;;;;;;;;;;;;;;5057345;28;19920;-71
2022/11/21 02:27:50;;;;;;;;;;;;;;;;;;5058136;28;19928;-72
2022/11/21 02:30:16;;;;;;;;;;;;;;;;;;5058070;28;20389;-72
2022/11/21 02:32:45;;;;;;;;;;;;;;;;;;5074884;28;19982;-72
2022/11/21 02:35:11;;;;;;;;;;;;;;;;;;5074135;28;19921;-72
2022/11/21 02:37:37;;;;;;;;;;;;;;;;;;5092065;28;20433;-72
2022/11/21 02:40:03;;;;;;;;;;;;;;;;;;5093155;28;19924;-72
2022/11/21 02:42:29;;;;;;;;;;;;;;;;;;5096019;28;19942;-72
2022/11/21 02:44:55;;;;;;;;;;;;;;;;;;5095241;28;19927;-72
2022/11/21 02:47:21;;;;;;;;;;;;;;;;;;5094773;28;19920;-72
2022/11/21 02:49:47;;;;;;;;;;;;;;;;;;5094811;28;19920;-72
2022/11/21 02:52:13;;;;;;;;;;;;;;;;;;5093101;28;19990;-73
2022/11/21 02:54:39;;;;;;;;;;;;;;;;;;5093534;28;19932;-71
2022/11/21 02:57:04;;;;;;;;;;;;;;;;;;5094525;28;20400;-72
2022/11/21 02:59:30;;;;;;;;;;;;;;;;;;5077502;28;19943;-72
2022/11/21 03:01:58;;;;;;;;;;;;;;;;;;5095689;28;19921;-71
2022/11/21 03:04:24;;;;;;;;;;;;;;;;;;5094952;28;19927;-71
2022/11/21 03:06:50;;;;;;;;;;;;;;;;;;5095585;28;19920;-72
2022/11/21 03:09:16;;;;;;;;;;;;;;;;;;5087860;28;20467;-72
2022/11/21 03:11:42;;;;;;;;;;;;;;;;;;5073861;28;20007;-73
2022/11/21 03:14:08;;;;;;;;;;;;;;;;;;5073541;28;19964;-71
2022/11/21 03:16:33;;;;;;;;;;;;;;;;;;5057102;28;20408;-72
2022/11/21 03:18:59;;;;;;;;;;;;;;;;;;5074012;28;19926;-71
2022/11/21 03:21:25;;;;;;;;;;;;;;;;;;5073872;28;19920;-71
2022/11/21 03:23:51;;;;;;;;;;;;;;;;;;5074834;28;19974;-71
2022/11/21 03:26:17;;;;;;;;;;;;;;;;;;5077545;28;19920;-71
2022/11/21 03:28:43;;;;;;;;;;;;;;;;;;5074558;28;19931;-71
2022/11/21 03:31:09;;;;;;;;;;;;;;;;;;5073674;28;20344;-71
2022/11/21 03:33:35;;;;;;;;;;;;;;;;;;5074922;28;19925;-72
2022/11/21 03:36:01;;;;;;;;;;;;;;;;;;5072459;28;19966;-72
2022/11/21 03:38:27;;;;;;;;;;;;;;;;;;5073686;28;20275;-71
2022/11/21 03:40:52;;;;;;;;;;;;;;;;;;5074965;28;19927;-71
2022/11/21 03:43:18;;;;;;;;;;;;;;;;;;5076080;28;19920;-71
2022/11/21 03:45:44;;;;;;;;;;;;;;;;;;5082077;28;19920;-71
2022/11/21 03:48:10;;;;;;;;;;;;;;;;;;5094147;28;20397;-71
2022/11/21 03:50:36;;;;;;;;;;;;;;;;;;5093604;28;19920;-71
2022/11/21 03:53:02;;;;;;;;;;;;;;;;;;5076647;28;19924;-71
2022/11/21 03:55:28;;;;;;;;;;;;;;;;;;5092578;28;19920;-71
2022/11/21 03:57:54;;;;;;;;;;;;;;;;;;5091771;28;19930;-72
2022/11/21 04:00:20;;;;;;;;;;;;;;;;;;5094225;28;20402;-72
2022/11/21 04:02:45;;;;;;;;;;;;;;;;;;5093396;28;19960;-72
2022/11/21 04:05:11;;;;;;;;;;;;;;;;;;5093615;28;19920;-71
2022/11/21 04:07:37;;;;;;;;;;;;;;;;;;5094490;28;20442;-71
2022/11/21 04:10:03;;;;;;;;;;;;;;;;;;5094620;28;19924;-71
2022/11/21 04:12:29;;;;;;;;;;;;;;;;;;5093007;28;19924;-71
2022/11/21 04:14:55;;;;;;;;;;;;;;;;;;5090330;28;20006;-71
2022/11/21 04:17:21;;;;;;;;;;;;;;;;;;5093322;28;20475;-71
2022/11/21 04:19:47;;;;;;;;;;;;;;;;;;5094086;28;20378;-73
2022/11/21 04:22:13;;;;;;;;;;;;;;;;;;5093153;28;19928;-73
2022/11/21 04:24:39;;;;;;;;;;;;;;;;;;5092054;28;19920;-73
2022/11/21 04:27:04;;;;;;;;;;;;;;;;;;5094391;28;19920;-71
2022/11/21 04:29:30;;;;;;;;;;;;;;;;;;5101292;28;19927;-71
2022/11/21 04:31:56;;;;;;;;;;;;;;;;;;5101546;28;19920;-71
2022/11/21 04:34:22;;;;;;;;;;;;;;;;;;5102542;28;19920;-71
2022/11/21 04:36:48;;;;;;;;;;;;;;;;;;5102015;28;20331;-71
2022/11/21 04:39:14;;;;;;;;;;;;;;;;;;5076343;28;19920;-71
2022/11/21 04:41:40;;;;;;;;;;;;;;;;;;5074936;28;19927;-71
2022/11/21 04:44:06;;;;;;;;;;;;;;;;;;5092045;28;19928;-70
2022/11/21 04:46:32;;;;;;;;;;;;;;;;;;5092033;28;19928;-71
2022/11/21 04:48:58;;;;;;;;;;;;;;;;;;5093911;28;20010;-71
2022/11/21 04:51:23;;;;;;;;;;;;;;;;;;5092646;28;20019;-71
2022/11/21 04:53:49;;;;;;;;;;;;;;;;;;5092093;28;19924;-71
2022/11/21 04:56:15;;;;;;;;;;;;;;;;;;5093784;28;19927;-71
2022/11/21 04:58:41;;;;;;;;;;;;;;;;;;5092799;28;19920;-71
2022/11/21 05:01:07;;;;;;;;;;;;;;;;;;5092922;28;19924;-71
2022/11/21 05:03:33;;;;;;;;;;;;;;;;;;5074900;28;19970;-71
2022/11/21 05:05:59;;;;;;;;;;;;;;;;;;5070954;28;19921;-71
2022/11/21 05:08:25;;;;;;;;;;;;;;;;;;5055396;28;19920;-71
2022/11/21 05:13:35;;;;;;;;;;;;;;;;;;5071549;28;19930;-71
2022/11/21 05:16:01;;;;;;;;;;;;;;;;;;5077297;28;19999;-73
2022/11/21 05:18:27;;;;;;;;;;;;;;;;;;5093330;28;20007;-71
2022/11/21 05:20:53;;;;;;;;;;;;;;;;;;5093208;28;19931;-71
2022/11/21 05:23:19;;;;;;;;;;;;;;;;;;5091730;28;20370;-71
2022/11/21 05:25:45;;;;;;;;;;;;;;;;;;5090930;28;19959;-71
2022/11/21 05:28:11;;;;;;;;;;;;;;;;;;5091309;28;19927;-71
2022/11/21 05:30:37;;;;;;;;;;;;;;;;;;5081287;28;19927;-71
2022/11/21 05:33:02;;;;;;;;;;;;;;;;;;5059416;28;19924;-71
2022/11/21 05:35:28;;;;;;;;;;;;;;;;;;5070353;28;20405;-71
2022/11/21 05:37:54;;;;;;;;;;;;;;;;;;5071320;28;19924;-71
2022/11/21 05:40:20;;;;;;;;;;;;;;;;;;5072711;28;20010;-71
2022/11/21 05:45:31;;;;;;;;;;;;;;;;;;5071912;28;19920;-71
2022/11/21 05:47:57;;;;;;;;;;;;;;;;;;5073673;28;19927;-71
2022/11/21 05:50:23;;;;;;;;;;;;;;;;;;5072395;28;19946;-71
2022/11/21 05:52:49;;;;;;;;;;;;;;;;;;5072082;28;19924;-71
2022/11/21 05:55:14;;;;;;;;;;;;;;;;;;5070498;28;19966;-71
2022/11/21 05:57:40;;;;;;;;;;;;;;;;;;5070880;28;20341;-71
2022/11/21 06:00:06;;;;;;;;;;;;;;;;;;5071097;28;19921;-71
2022/11/21 06:05:17;;;;;;;;;;;;;;;;;;5072563;28;20027;-71
2022/11/21 06:07:43;;;;;;;;;;;;;;;;;;5091612;28;19975;-71
2022/11/21 06:10:09;;;;;;;;;;;;;;;;;;5091095;28;20417;-71
2022/11/21 06:12:35;;;;;;;;;;;;;;;;;;5091045;28;19950;-71
2022/11/21 06:15:00;;;;;;;;;;;;;;;;;;5091750;28;19920;-71
2022/11/21 06:17:26;;;;;;;;;;;;;;;;;;5091974;28;20365;-71
2022/11/21 06:19:52;;;;;;;;;;;;;;;;;;5090927;28;19926;-71
2022/11/21 06:22:18;;;;;;;;;;;;;;;;;;5054475;28;19921;-72
2022/11/21 06:24:44;;;;;;;;;;;;;;;;;;5070003;28;19921;-71
2022/11/21 06:27:10;;;;;;;;;;;;;;;;;;5072222;28;20340;-71
2022/11/21 06:29:36;;;;;;;;;;;;;;;;;;5070671;28;20011;-71
2022/11/21 06:32:02;;;;;;;;;;;;;;;;;;5070604;28;19943;-71
2022/11/21 06:34:28;;;;;;;;;;;;;;;;;;5070023;28;19920;-71
2022/11/21 06:36:54;;;;;;;;;;;;;;;;;;5122526;22;19932;-72
2022/11/21 06:39:19;;;;;;;;;;;;;;;;;;5090659;28;19920;-72
2022/11/21 06:41:49;;;;;;;;;;;;;;;;;;5090673;28;20286;-72
2022/11/21 06:44:15;;;;;;;;;;;;;;;;;;5091187;28;20476;-72
2022/11/21 06:46:41;;;;;;;;;;;;;;;;;;5058920;28;19967;-72
2022/11/21 06:49:07;;;;;;;;;;;;;;;;;;5070820;28;20019;-73
2022/11/21 06:51:33;;;;;;;;;;;;;;;;;;5070512;28;19921;-72
2022/11/21 06:53:59;;;;;;;;;;;;;;;;;;5070672;28;20390;-72
2022/11/21 06:56:25;;;;;;;;;;;;;;;;;;5053535;28;19920;-72
2022/11/21 06:58:51;;;;;;;;;;;;;;;;;;5068902;28;19982;-72
2022/11/21 07:01:17;;;;;;;;;;;;;;;;;;5070543;28;19924;-72
2022/11/21 07:03:43;;;;;;;;;;;;;;;;;;5070761;28;20286;-72
2022/11/21 07:06:09;;;;;;;;;;;;;;;;;;5073644;28;19927;-72
2022/11/21 07:08:35;;;;;;;;;;;;;;;;;;5075097;28;20348;-72
2022/11/21 07:11:01;;;;;;;;;;;;;;;;;;5075752;28;19921;-72
2022/11/21 07:13:27;;;;;;;;;;;;;;;;;;5075344;28;19981;-72
2022/11/21 07:15:53;;;;;;;;;;;;;;;;;;5070797;28;19924;-71
2022/11/21 07:18:19;;;;;;;;;;;;;;;;;;5077479;28;19971;-71
2022/11/21 07:20:45;;;;;;;;;;;;;;;;;;5082810;28;19921;-72
2022/11/21 07:23:11;;;;;;;;;;;;;;;;;;5086829;28;19931;-71
2022/11/21 07:25:38;;;;;;;;;;;;;;;;;;5079237;28;19920;-72
2022/11/21 07:28:04;;;;;;;;;;;;;;;;;;5070896;28;19921;-71
2022/11/21 07:30:30;;;;;;;;;;;;;;;;;;5084617;28;19920;-71
2022/11/21 07:32:56;;;;;;;;;;;;;;;;;;5070413;28;20390;-72
2022/11/21 07:35:22;;;;;;;;;;;;;;;;;;5067944;28;19924;-71
2022/11/21 07:37:48;;;;;;;;;;;;;;;;;;5083682;28;19950;-72
2022/11/21 07:40:13;;;;;;;;;;;;;;;;;;5073754;28;19974;-71
2022/11/21 07:42:39;;;;;;;;;;;;;;;;;;5072860;28;19920;-71
2022/11/21 07:45:05;;;;;;;;;;;;;;;;;;5080671;28;19971;-72
2022/11/21 07:47:31;;;;;;;;;;;;;;;;;;5071514;28;19964;-72
2022/11/21 07:49:57;;;;;;;;;;;;;;;;;;5078590;28;19924;-71
2022/11/21 07:52:24;;;;;;;;;;;;;;;;;;5083143;28;20424;-71
2022/11/21 07:54:50;;;;;;;;;;;;;;;;;;5079562;28;19920;-72
2022/11/21 07:57:16;;;;;;;;;;;;;;;;;;5076920;28;19920;-72
2022/11/21 07:59:43;;;;;;;;;;;;;;;;;;5074339;28;19920;-72
2022/11/21 08:02:09;;;;;;;;;;;;;;;;;;5072675;28;19927;-72
2022/11/21 08:04:34;;;;;;;;;;;;;;;;;;5071076;28;19920;-72
2022/11/21 08:07:01;;;;;;;;;;;;;;;;;;5090156;28;19920;-72
2022/11/21 08:09:27;;;;;;;;;;;;;;;;;;5087952;28;19925;-72
2022/11/21 08:11:53;;;;;;;;;;;;;;;;;;5091757;28;19926;-72
2022/11/21 08:14:19;;;;;;;;;;;;;;;;;;5090905;28;19924;-72
2022/11/21 08:16:45;;;;;;;;;;;;;;;;;;5091166;28;20320;-72
2022/11/21 08:19:11;;;;;;;;;;;;;;;;;;5093261;28;19973;-72
2022/11/21 08:21:37;;;;;;;;;;;;;;;;;;5090025;28;20321;-72
2022/11/21 08:24:03;;;;;;;;;;;;;;;;;;5074992;28;19932;-72
2022/11/21 08:26:29;;;;;;;;;;;;;;;;;;5091480;28;20036;-72
2022/11/21 08:28:54;;;;;;;;;;;;;;;;;;5076431;28;20005;-71
2022/11/21 08:31:20;;;;;;;;;;;;;;;;;;5075183;28;19976;-71
2022/11/21 08:33:46;;;;;;;;;;;;;;;;;;5056885;28;20298;-71
2022/11/21 08:36:13;;;;;;;;;;;;;;;;;;5071875;28;19920;-71
2022/11/21 08:38:39;;;;;;;;;;;;;;;;;;5082626;28;19921;-71
2022/11/21 08:43:49;;;;;;;;;;;;;;;;;;5073965;28;19935;-71
2022/11/21 08:46:16;;;;;;;;;;;;;;;;;;5087802;28;20333;-72
2022/11/21 08:48:42;;;;;;;;;;;;;;;;;;5072515;28;20050;-72
2022/11/21 08:51:08;;;;;;;;;;;;;;;;;;5072864;28;20082;-72
2022/11/21 08:53:34;;;;;;;;;;;;;;;;;;5091945;28;19924;-72
2022/11/21 08:55:59;;;;;;;;;;;;;;;;;;5076280;28;19943;-72
2022/11/21 08:58:25;;;;;;;;;;;;;;;;;;5072923;28;19924;-72
2022/11/21 09:00:51;;;;;;;;;;;;;;;;;;5078118;28;20407;-72
2022/11/21 09:03:17;;;;;;;;;;;;;;;;;;5074617;28;19925;-72
2022/11/21 09:05:44;;;;;;;;;;;;;;;;;;5083572;28;19920;-71
2022/11/21 09:08:10;;;;;;;;;;;;;;;;;;5074857;28;19920;-72
2022/11/21 09:10:36;;;;;;;;;;;;;;;;;;5081902;28;19935;-72
2022/11/21 09:13:02;;;;;;;;;;;;;;;;;;5073742;28;20011;-72
2022/11/21 09:18:12;;;;;;;;;;;;;;;;;;5070773;28;20456;-72
2022/11/21 09:20:38;;;;;;;;;;;;;;;;;;5070646;28;19920;-72
2022/11/21 09:23:04;;;;;;;;;;;;;;;;;;5070532;28;19949;-72
2022/11/21 09:25:30;;;;;;;;;;;;;;;;;;5070449;28;19928;-72
2022/11/21 09:27:56;;;;;;;;;;;;;;;;;;5088015;28;19967;-72
2022/11/21 09:30:22;;;;;;;;;;;;;;;;;;5091019;28;19927;-72
2022/11/21 09:32:47;;;;;;;;;;;;;;;;;;5082026;28;19979;-72
2022/11/21 09:35:13;;;;;;;;;;;;;;;;;;5089310;28;19926;-72
2022/11/21 09:37:39;;;;;;;;;;;;;;;;;;5086298;28;19926;-72
2022/11/21 09:40:05;;;;;;;;;;;;;;;;;;5070215;28;19927;-72
2022/11/21 09:42:31;;;;;;;;;;;;;;;;;;5061549;28;19924;-72
2022/11/21 09:44:57;;;;;;;;;;;;;;;;;;5076550;28;19926;-72
2022/11/21 09:47:23;;;;;;;;;;;;;;;;;;5086958;28;19997;-72
2022/11/21 09:49:49;;;;;;;;;;;;;;;;;;5090991;28;19986;-72
2022/11/21 09:52:15;;;;;;;;;;;;;;;;;;5089736;28;20301;-72
2022/11/21 09:54:41;;;;;;;;;;;;;;;;;;5088184;28;19920;-72
2022/11/21 09:57:07;;;;;;;;;;;;;;;;;;5079553;28;19926;-72
2022/11/21 09:59:33;;;;;;;;;;;;;;;;;;5071808;28;19920;-72
2022/11/21 10:01:58;;;;;;;;;;;;;;;;;;5072334;28;20428;-72
2022/11/21 10:04:24;;;;;;;;;;;;;;;;;;5089200;28;19920;-72
2022/11/21 10:06:50;;;;;;;;;;;;;;;;;;5089883;28;19927;-72
2022/11/21 10:09:16;;;;;;;;;;;;;;;;;;5088532;28;19936;-72
2022/11/21 10:12:35;;;;;;;;;;;;;;;;;;5071915;28;19921;-72
2022/11/21 10:14:28;;;;;;;;;;;;;;;;;;5070233;28;19924;-72
2022/11/21 10:16:54;;;;;;;;;;;;;;;;;;5069787;28;20436;-72
2022/11/21 10:19:20;;;;;;;;;;;;;;;;;;5069860;28;19974;-72
2022/11/21 10:21:46;;;;;;;;;;;;;;;;;;5069203;28;19920;-72
2022/11/21 10:24:12;;;;;;;;;;;;;;;;;;5052832;28;19924;-72
2022/11/21 10:26:37;;;;;;;;;;;;;;;;;;5071353;28;19971;-72
2022/11/21 10:29:03;;;;;;;;;;;;;;;;;;5073642;28;19927;-72
2022/11/21 10:31:29;;;;;;;;;;;;;;;;;;5073799;28;20301;-71
2022/11/21 10:33:55;;;;;;;;;;;;;;;;;;5083900;28;20053;-71
2022/11/21 10:36:21;;;;;;;;;;;;;;;;;;5069716;28;20018;-71
2022/11/21 10:38:49;;;;;;;;;;;;;;;;;;5070246;28;20445;-71
2022/11/21 10:41:14;;;;;;;;;;;;;;;;;;5077569;28;20017;-72
2022/11/21 10:46:25;;;;;;;;;;;;;;;;;;5081099;28;19947;-71
2022/11/21 10:48:51;;;;;;;;;;;;;;;;;;5078653;28;19921;-71
2022/11/21 10:51:17;;;;;;;;;;;;;;;;;;5094631;28;19931;-71
2022/11/21 10:56:28;;;;;;;;;;;;;;;;;;5085339;28;20064;-71
2022/11/21 10:58:54;;;;;;;;;;;;;;;;;;5094449;28;20275;-71
2022/11/21 11:01:20;;;;;;;;;;;;;;;;;;5082928;28;19927;-72
2022/11/21 11:03:46;;;;;;;;;;;;;;;;;;5078398;28;19920;-71
2022/11/21 11:06:12;;;;;;;;;;;;;;;;;;5076964;28;19928;-70
2022/11/21 11:08:38;;;;;;;;;;;;;;;;;;5073723;28;19920;-71
2022/11/21 11:11:04;;;;;;;;;;;;;;;;;;5082290;28;19924;-71
2022/11/21 11:13:33;;;;;;;;;;;;;;;;;;5080904;28;20065;-71
2022/11/21 11:15:59;;;;;;;;;;;;;;;;;;5083780;28;20278;-73
2022/11/21 11:18:25;;;;;;;;;;;;;;;;;;5084919;28;20142;-71
2022/11/21 11:20:51;;;;;;;;;;;;;;;;;;5084055;28;19931;-69
2022/11/21 11:23:17;;;;;;;;;;;;;;;;;;5080232;28;20019;-72
2022/11/21 11:25:42;;;;;;;;;;;;;;;;;;5060701;28;19924;-72
2022/11/21 11:28:08;;;;;;;;;;;;;;;;;;5060633;28;19924;-72
2022/11/21 11:30:34;;;;;;;;;;;;;;;;;;5083920;28;19920;-71
2022/11/21 11:33:00;;;;;;;;;;;;;;;;;;5077779;28;19928;-72
2022/11/21 11:35:26;;;;;;;;;;;;;;;;;;5079305;28;20010;-72
2022/11/21 11:37:52;;;;;;;;;;;;;;;;;;5079213;28;20489;-71
2022/11/21 11:40:18;;;;;;;;;;;;;;;;;;5075761;28;19924;-71
2022/11/21 11:48:15;;;;;;;;;;;;;;;;;;5072558;28;19935;-74
2022/11/21 11:50:41;;;;;;;;;;;;;;;;;;5074909;28;19924;-73
2022/11/21 11:53:07;;;;;;;;;;;;;;;;;;5072988;28;19990;-73
2022/11/21 11:55:33;;;;;;;;;;;;;;;;;;5072405;28;20591;-73
2022/11/21 11:57:59;;;;;;;;;;;;;;;;;;5078787;28;19920;-73
2022/11/21 12:00:25;;;;;;;;;;;;;;;;;;5073533;28;19927;-73
2022/11/21 12:02:51;;;;;;;;;;;;;;;;;;5083772;28;19921;-73
2022/11/21 12:05:16;;;;;;;;;;;;;;;;;;5062924;28;20333;-73
2022/11/21 12:07:42;;;;;;;;;;;;;;;;;;5074299;28;19924;-73
2022/11/21 12:10:08;;;;;;;;;;;;;;;;;;5056141;28;19947;-73
2022/11/21 12:12:34;;;;;;;;;;;;;;;;;;5079324;28;20374;-73
2022/11/21 12:17:52;;;;;;;;;;;;;;;;;;5057072;28;20389;-73
2022/11/21 12:20:18;;;;;;;;;;;;;;;;;;5073276;28;20011;-73
2022/11/21 12:22:44;;;;;;;;;;;;;;;;;;5075090;28;19959;-73
2022/11/21 12:25:10;;;;;;;;;;;;;;;;;;5075957;28;20013;-72
2022/11/21 12:27:36;;;;;;;;;;;;;;;;;;5072476;28;20449;-73
2022/11/21 12:30:03;;;;;;;;;;;;;;;;;;5064846;28;19927;-73
2022/11/21 12:32:29;;;;;;;;;;;;;;;;;;5091951;28;19920;-73
2022/11/21 12:34:55;;;;;;;;;;;;;;;;;;5087217;28;19924;-73
2022/11/21 12:37:21;;;;;;;;;;;;;;;;;;5079271;28;20385;-73
2022/11/21 12:39:47;;;;;;;;;;;;;;;;;;5088924;28;19932;-73
2022/11/21 12:45:00;;;;;;;;;;;;;;;;;;5071974;28;19927;-73
2022/11/21 12:47:25;;;;;;;;;;;;;;;;;;5071835;28;19921;-73
2022/11/21 12:55:21;;;;;;;;;;;;;;;;;;5081611;28;20294;-73
2022/11/21 12:57:47;;;;;;;;;;;;;;;;;;5089621;28;19924;-73
2022/11/21 13:00:13;;;;;;;;;;;;;;;;;;5091904;28;19920;-73
2022/11/21 13:02:39;;;;;;;;;;;;;;;;;;5090937;28;20325;-73
2022/11/21 13:05:05;;;;;;;;;;;;;;;;;;5090911;28;19920;-73
2022/11/21 13:07:31;;;;;;;;;;;;;;;;;;5091604;28;19985;-73
2022/11/21 13:09:57;;;;;;;;;;;;;;;;;;5092919;28;19959;-73
2022/11/21 13:12:23;;;;;;;;;;;;;;;;;;5089429;28;19927;-73
2022/11/21 13:14:49;;;;;;;;;;;;;;;;;;5087928;28;20413;-73
2022/11/21 13:17:15;;;;;;;;;;;;;;;;;;5080052;28;19928;-72
2022/11/21 13:19:41;;;;;;;;;;;;;;;;;;5080909;28;19943;-72
2022/11/21 13:22:06;;;;;;;;;;;;;;;;;;5063066;28;19935;-72
2022/11/21 13:24:32;;;;;;;;;;;;;;;;;;5078957;28;19928;-72
2022/11/21 13:26:58;;;;;;;;;;;;;;;;;;5076346;28;19924;-73
2022/11/21 13:29:24;;;;;;;;;;;;;;;;;;5072515;28;19927;-73
2022/11/21 13:31:50;;;;;;;;;;;;;;;;;;5070772;28;19932;-73
2022/11/21 13:34:16;;;;;;;;;;;;;;;;;;5070127;28;20389;-73
2022/11/21 13:36:42;;;;;;;;;;;;;;;;;;5070781;28;20557;-73
2022/11/21 13:39:08;;;;;;;;;;;;;;;;;;5070726;28;19955;-73
2022/11/21 13:44:18;;;;;;;;;;;;;;;;;;5071469;28;19920;-73
2022/11/21 13:46:44;;;;;;;;;;;;;;;;;;5070789;28;19921;-73
2022/11/21 13:49:10;;;;;;;;;;;;;;;;;;5072100;28;20420;-73
2022/11/21 13:51:36;;;;;;;;;;;;;;;;;;5070738;28;19925;-73
2022/11/21 13:54:02;;;;;;;;;;;;;;;;;;5070958;28;19951;-73
2022/11/21 13:56:28;;;;;;;;;;;;;;;;;;5071879;28;20414;-73
2022/11/21 13:58:54;;;;;;;;;;;;;;;;;;5072151;28;20007;-73
2022/11/21 14:01:19;;;;;;;;;;;;;;;;;;5083699;28;20404;-73
2022/11/21 14:03:46;;;;;;;;;;;;;;;;;;5070266;28;20003;-73
2022/11/21 14:06:12;;;;;;;;;;;;;;;;;;5071561;28;19920;-73
2022/11/21 14:08:39;;;;;;;;;;;;;;;;;;5070636;28;19948;-73
2022/11/21 14:11:05;;;;;;;;;;;;;;;;;;5070761;28;20015;-73
2022/11/21 14:13:31;;;;;;;;;;;;;;;;;;5075500;28;20452;-73
2022/11/21 14:15:57;;;;;;;;;;;;;;;;;;5090484;28;20018;-73
2022/11/21 14:18:22;;;;;;;;;;;;;;;;;;5092566;28;19920;-73
2022/11/21 14:20:48;;;;;;;;;;;;;;;;;;5090421;28;19927;-73
2022/11/21 14:23:14;;;;;;;;;;;;;;;;;;5090511;28;19935;-73
2022/11/21 14:25:40;;;;;;;;;;;;;;;;;;5061103;28;20011;-73
2022/11/21 14:28:06;;;;;;;;;;;;;;;;;;5070405;28;20360;-73
2022/11/21 14:30:32;;;;;;;;;;;;;;;;;;5072479;28;19928;-73
2022/11/21 14:32:58;;;;;;;;;;;;;;;;;;5061913;28;20007;-73
2022/11/21 14:35:24;;;;;;;;;;;;;;;;;;5083680;28;19920;-73
2022/11/21 14:37:50;;;;;;;;;;;;;;;;;;5090289;28;19953;-73
2022/11/21 14:40:16;;;;;;;;;;;;;;;;;;5083902;28;19920;-73
2022/11/21 14:42:42;;;;;;;;;;;;;;;;;;5068861;28;19920;-73
2022/11/21 14:45:07;;;;;;;;;;;;;;;;;;5067837;28;20011;-73
2022/11/21 14:47:33;;;;;;;;;;;;;;;;;;5070882;28;19921;-73
2022/11/21 14:50:02;;;;;;;;;;;;;;;;;;5072338;28;19921;-72
2022/11/21 14:52:29;;;;;;;;;;;;;;;;;;5084316;28;19924;-73
2022/11/21 14:54:55;;;;;;;;;;;;;;;;;;5070645;28;19920;-72
2022/11/21 14:57:21;;;;;;;;;;;;;;;;;;5069105;28;19996;-73
2022/11/21 14:59:47;;;;;;;;;;;;;;;;;;5085651;28;20359;-73
2022/11/21 15:02:12;;;;;;;;;;;;;;;;;;5081697;28;20374;-73
2022/11/21 15:04:38;;;;;;;;;;;;;;;;;;5088268;28;19973;-73
2022/11/21 15:07:04;;;;;;;;;;;;;;;;;;5082244;28;19920;-73
2022/11/21 15:09:30;;;;;;;;;;;;;;;;;;5078557;28;20386;-73
2022/11/21 15:11:56;;;;;;;;;;;;;;;;;;5089070;28;20459;-73
2022/11/21 15:14:22;;;;;;;;;;;;;;;;;;5070681;28;19925;-73
2022/11/21 15:16:48;;;;;;;;;;;;;;;;;;5076789;28;19920;-73
2022/11/21 15:19:14;;;;;;;;;;;;;;;;;;5090053;28;19920;-73
2022/11/21 15:21:40;;;;;;;;;;;;;;;;;;5090058;28;20346;-73
2022/11/21 15:24:06;;;;;;;;;;;;;;;;;;5089400;28;19924;-73
2022/11/21 15:26:31;;;;;;;;;;;;;;;;;;5082038;28;19924;-73
2022/11/21 15:28:57;;;;;;;;;;;;;;;;;;5073781;28;19924;-73
2022/11/21 15:31:23;;;;;;;;;;;;;;;;;;5072680;28;19921;-72
2022/11/21 15:33:49;;;;;;;;;;;;;;;;;;5073504;28;20011;-73
2022/11/21 15:36:15;;;;;;;;;;;;;;;;;;5060978;28;19932;-73
2022/11/21 15:38:41;;;;;;;;;;;;;;;;;;5073073;28;19964;-73
2022/11/21 15:41:08;;;;;;;;;;;;;;;;;;5072753;28;19924;-73
2022/11/21 15:43:33;;;;;;;;;;;;;;;;;;5072315;28;20336;-72
2022/11/21 15:46:00;;;;;;;;;;;;;;;;;;5074000;28;19920;-73
2022/11/21 15:48:26;;;;;;;;;;;;;;;;;;5081996;28;20642;-73
2022/11/21 15:50:51;;;;;;;;;;;;;;;;;;5092652;28;19975;-73
2022/11/21 15:53:18;;;;;;;;;;;;;;;;;;5083325;28;19934;-73
2022/11/21 15:55:44;;;;;;;;;;;;;;;;;;5089891;28;19920;-72
2022/11/21 15:58:09;;;;;;;;;;;;;;;;;;5090507;28;19966;-73
2022/11/21 16:00:35;;;;;;;;;;;;;;;;;;5088612;28;19921;-73
2022/11/21 16:03:01;;;;;;;;;;;;;;;;;;5077860;28;19920;-74
2022/11/21 16:05:27;;;;;;;;;;;;;;;;;;5079601;28;19927;-74
2022/11/21 16:07:53;;;;;;;;;;;;;;;;;;5080020;28;20418;-74
2022/11/21 16:10:20;;;;;;;;;;;;;;;;;;5083536;28;19977;-74
2022/11/21 16:12:46;;;;;;;;;;;;;;;;;;5083901;28;19928;-74
2022/11/21 16:15:12;;;;;;;;;;;;;;;;;;5082889;28;19920;-74
2022/11/21 16:17:39;;;;;;;;;;;;;;;;;;5065288;28;19920;-74
2022/11/21 16:20:05;;;;;;;;;;;;;;;;;;5084282;28;19920;-74
2022/11/21 16:22:31;;;;;;;;;;;;;;;;;;5067041;28;19921;-73
2022/11/21 16:24:57;;;;;;;;;;;;;;;;;;5082855;28;20541;-74
2022/11/21 16:27:22;;;;;;;;;;;;;;;;;;5084089;28;19920;-74
2022/11/21 16:29:48;;;;;;;;;;;;;;;;;;5083043;28;20271;-74
2022/11/21 16:32:14;;;;;;;;;;;;;;;;;;5081752;28;20390;-74
2022/11/21 16:34:40;;;;;;;;;;;;;;;;;;5083897;28;19977;-74
2022/11/21 16:37:06;;;;;;;;;;;;;;;;;;5075194;28;20299;-74
2022/11/21 16:39:32;;;;;;;;;;;;;;;;;;5070881;28;20406;-74
2022/11/21 16:41:58;;;;;;;;;;;;;;;;;;5070261;28;19932;-74
2022/11/21 16:44:24;;;;;;;;;;;;;;;;;;5078740;28;20407;-74
2022/11/21 16:46:53;;;;;;;;;;;;;;;;;;5076943;28;19928;-74
2022/11/21 16:49:19;;;;;;;;;;;;;;;;;;5080951;28;19966;-74
2022/11/21 16:51:45;;;;;;;;;;;;;;;;;;5061885;28;20345;-73
2022/11/21 16:54:11;;;;;;;;;;;;;;;;;;5071017;28;20097;-74
2022/11/21 16:56:37;;;;;;;;;;;;;;;;;;5077076;28;19930;-72
2022/11/21 16:59:02;;;;;;;;;;;;;;;;;;5084253;28;20102;-74
2022/11/21 17:01:28;;;;;;;;;;;;;;;;;;5077346;28;19924;-74
2022/11/21 17:03:54;;;;;;;;;;;;;;;;;;5070661;28;20016;-74
2022/11/21 17:06:20;;;;;;;;;;;;;;;;;;5081808;28;19959;-74
2022/11/21 17:08:46;;;;;;;;;;;;;;;;;;5084104;28;20372;-74
2022/11/21 17:11:12;;;;;;;;;;;;;;;;;;5075647;28;19927;-74
2022/11/21 17:13:38;;;;;;;;;;;;;;;;;;5084995;28;19928;-74
2022/11/21 17:16:04;;;;;;;;;;;;;;;;;;5078529;28;19934;-74